This is the latest recevied weather packets stored in our database for station/object HB9ZRH-10. If no packets are shown the sender has not sent any weather packets the latest 10 day(s).
| Time | Temp. | Humidity | Pressure | Rain* | Wind** | Luminosity | Snow |
|---|---|---|---|---|---|---|---|
| 1778002519 | 25° C | 42% | 1009.1 hPa | - | - | - | - |
| 1778002219 | 25° C | 42% | 1009.1 hPa | - | - | - | - |
| 1778001919 | 25° C | 42% | 1009 hPa | - | - | - | - |
| 1778001619 | 24.44° C | 43% | 1009 hPa | - | - | - | - |
| 1778001319 | 21.67° C | 46% | 1009.1 hPa | - | - | - | - |
| 1778001019 | 20.56° C | 47% | 1009 hPa | - | - | - | - |
| 1778000719 | 21.11° C | 47% | 1009.1 hPa | - | - | - | - |
| 1778000419 | 17.78° C | 49% | 1009.2 hPa | - | - | - | - |
| 1778000119 | 18.33° C | 48% | 1009 hPa | - | - | - | - |
| 1777999819 | 23.33° C | 43% | 1008.9 hPa | - | - | - | - |
| 1777999519 | 23.89° C | 44% | 1008.7 hPa | - | - | - | - |
| 1777999219 | 21.11° C | 47% | 1008.9 hPa | - | - | - | - |
| 1777998919 | 20.56° C | 47% | 1009 hPa | - | - | - | - |
| 1777998619 | 21.67° C | 45% | 1008.9 hPa | - | - | - | - |
| 1777998319 | 22.22° C | 47% | 1009 hPa | - | - | - | - |
| 1777998019 | 18.89° C | 49% | 1009.1 hPa | - | - | - | - |
| 1777997719 | 16.67° C | 51% | 1009 hPa | - | - | - | - |
| 1777997419 | 16.11° C | 50% | 1008.9 hPa | - | - | - | - |
| 1777997119 | 16.11° C | 51% | 1008.9 hPa | - | - | - | - |
| 1777996819 | 17.22° C | 49% | 1008.7 hPa | - | - | - | - |
| 1777996519 | 17.78° C | 49% | 1008.6 hPa | - | - | - | - |
| 1777996219 | 18.33° C | 48% | 1008.6 hPa | - | - | - | - |
| 1777995919 | 19.44° C | 48% | 1008.6 hPa | - | - | - | - |
| 1777995619 | 18.33° C | 48% | 1008.7 hPa | - | - | - | - |
| 1777995319 | 18.89° C | 48% | 1008.6 hPa | - | - | - | - |
* Rain since midnight (hover to see other rain measurements)
** Current wind speed in m/s (hover to see current wind gust speed)